Time;durP1;ratioP1;P1;durP2;ratioP2;P2;SDS_P1;SDS_P2;PMS_P1;PMS_P2;Temp;Humidity;BMP_temperature;BMP_pressure;BME280_temperature;BME280_humidity;BME280_pressure;Samples;Min_cycle;Max_cycle;Signal;HPM_P1;HPM_P2
2022/04/06 00:00:24;;;;;;;20.13;8.55;;;8.30;99.90;;;;;;4953706;28;20141;-61
2022/04/06 00:02:50;;;;;;;21.30;8.23;;;8.30;99.90;;;;;;4933821;28;20072;-62
2022/04/06 00:05:17;;;;;;;23.33;8.95;;;8.30;99.90;;;;;;4927717;28;20074;-62
2022/04/06 00:07:43;;;;;;;20.98;8.55;;;8.30;99.90;;;;;;4958731;28;20051;-62
2022/04/06 00:10:12;;;;;;;25.63;8.65;;;8.30;99.90;;;;;;4960246;28;20117;-61
2022/04/06 00:12:39;;;;;;;24.17;8.38;;;8.30;99.90;;;;;;4960002;28;20164;-62
2022/04/06 00:15:08;;;;;;;16.85;8.75;;;8.30;99.90;;;;;;4940546;28;20612;-62
2022/04/06 00:17:34;;;;;;;26.45;9.70;;;8.30;99.90;;;;;;4946059;28;20050;-61
2022/04/06 00:20:00;;;;;;;21.00;9.48;;;8.30;99.90;;;;;;4925963;28;20054;-61
2022/04/06 00:22:26;;;;;;;26.73;9.52;;;8.30;99.90;;;;;;4933236;28;20102;-62
2022/04/06 00:24:52;;;;;;;28.98;10.50;;;8.30;99.90;;;;;;4931725;28;20222;-62
2022/04/06 00:27:19;;;;;;;34.30;10.45;;;8.30;99.90;;;;;;4956455;28;20581;-61
2022/04/06 00:29:45;;;;;;;27.83;10.85;;;8.30;99.90;;;;;;4927641;28;20046;-62
2022/04/06 00:32:11;;;;;;;28.15;10.90;;;8.30;99.90;;;;;;4947811;28;20043;-62
2022/04/06 00:37:22;;;;;;;29.42;11.35;;;8.20;99.90;;;;;;4932811;28;20057;-61
2022/04/06 00:39:47;;;;;;;31.55;11.18;;;8.30;99.90;;;;;;4927260;28;20039;-61
2022/04/06 00:42:13;;;;;;;31.48;11.77;;;8.20;99.90;;;;;;4963005;28;20039;-62
2022/04/06 00:44:39;;;;;;;27.38;12.10;;;8.20;99.90;;;;;;4924403;28;20058;-62
2022/04/06 00:47:06;;;;;;;29.70;11.18;;;8.20;99.90;;;;;;4944642;28;20101;-62
2022/04/06 00:49:33;;;;;;;29.83;12.32;;;8.30;99.90;;;;;;4949938;28;20085;-62
2022/04/06 00:52:01;;;;;;;32.03;13.25;;;8.20;99.90;;;;;;4938765;28;20039;-61
2022/04/06 00:54:29;;;;;;;31.27;13.27;;;8.20;99.90;;;;;;4951460;28;20050;-62
2022/04/06 00:56:56;;;;;;;33.03;13.25;;;8.20;99.90;;;;;;4932405;28;20096;-62
2022/04/06 00:59:22;;;;;;;38.03;14.00;;;8.20;99.90;;;;;;4930709;28;20046;-62
2022/04/06 01:01:50;;;;;;;32.80;13.40;;;8.20;99.90;;;;;;4950517;28;20051;-62
2022/04/06 01:04:17;;;;;;;30.00;13.93;;;8.20;99.90;;;;;;4924194;28;20090;-62
2022/04/06 01:06:45;;;;;;;34.25;15.02;;;8.20;99.90;;;;;;4937940;28;20051;-62
2022/04/06 01:09:11;;;;;;;30.85;14.60;;;8.20;99.90;;;;;;4930833;28;20134;-62
2022/04/06 01:11:37;;;;;;;36.90;13.93;;;8.20;99.90;;;;;;4944406;28;20069;-62
2022/04/06 01:14:03;;;;;;;39.92;14.82;;;8.30;99.90;;;;;;4933850;28;20055;-63
2022/04/06 01:16:32;;;;;;;38.00;14.85;;;8.20;99.90;;;;;;4937291;28;20544;-62
2022/04/06 01:18:58;;;;;;;40.55;14.93;;;8.30;99.90;;;;;;4960460;28;20057;-62
2022/04/06 01:21:23;;;;;;;37.33;14.27;;;8.30;99.90;;;;;;4927327;28;20397;-62
2022/04/06 01:23:49;;;;;;;33.28;13.77;;;8.30;99.90;;;;;;4929973;28;20674;-62
2022/04/06 01:26:15;;;;;;;32.35;12.85;;;8.30;99.90;;;;;;4959981;28;20075;-62
2022/04/06 01:28:41;;;;;;;33.60;13.45;;;8.30;99.90;;;;;;4926560;28;20221;-62
2022/04/06 01:31:07;;;;;;;32.38;12.07;;;8.30;99.90;;;;;;4925952;28;20051;-63
2022/04/06 01:33:34;;;;;;;26.83;12.05;;;8.30;99.90;;;;;;4919411;29;20051;-62
2022/04/06 01:36:00;;;;;;;38.85;12.55;;;8.30;99.90;;;;;;4950744;28;20051;-62
2022/04/06 01:38:26;;;;;;;35.50;11.55;;;8.30;99.90;;;;;;4934999;28;20043;-62
2022/04/06 01:40:53;;;;;;;27.98;10.93;;;8.30;99.90;;;;;;4965258;28;20061;-62
2022/04/06 01:43:19;;;;;;;29.27;10.60;;;8.30;99.90;;;;;;4932820;28;20059;-62
2022/04/06 01:45:46;;;;;;;29.67;11.02;;;8.30;99.90;;;;;;4932641;28;20134;-62
2022/04/06 01:48:14;;;;;;;30.25;10.18;;;8.30;99.90;;;;;;4931285;28;20418;-62
2022/04/06 01:53:27;;;;;;;27.17;9.20;;;8.30;99.90;;;;;;4922126;28;20047;-62
2022/04/06 01:55:54;;;;;;;22.52;9.23;;;8.30;99.90;;;;;;4927164;28;20645;-62
2022/04/06 01:58:20;;;;;;;24.70;9.75;;;8.30;99.90;;;;;;4938552;28;20047;-62
2022/04/06 02:00:46;;;;;;;27.35;8.80;;;8.30;99.90;;;;;;4930708;28;20043;-62
2022/04/06 02:03:12;;;;;;;23.00;8.77;;;8.30;99.90;;;;;;4930196;28;20110;-62
2022/04/06 02:05:38;;;;;;;23.48;9.25;;;8.40;99.90;;;;;;4928256;28;20054;-62
2022/04/06 02:08:04;;;;;;;24.45;9.25;;;8.30;99.90;;;;;;4957374;28;20062;-62
2022/04/06 02:10:30;;;;;;;21.05;9.73;;;8.30;99.90;;;;;;4940922;28;20597;-62
2022/04/06 02:12:58;;;;;;;25.25;8.70;;;8.30;99.90;;;;;;4948901;28;20061;-62
2022/04/06 02:15:25;;;;;;;19.98;7.63;;;8.30;99.90;;;;;;4934143;28;20074;-62
2022/04/06 02:17:51;;;;;;;21.52;7.25;;;8.40;99.90;;;;;;4927542;28;20124;-62
2022/04/06 02:20:17;;;;;;;19.33;7.07;;;8.40;99.90;;;;;;4937750;28;20050;-62
2022/04/06 02:22:43;;;;;;;17.42;7.25;;;8.40;99.90;;;;;;4916884;28;20076;-62
2022/04/06 02:25:12;;;;;;;23.38;7.40;;;8.40;99.90;;;;;;4936392;28;20707;-62
2022/04/06 02:27:52;;;;;;;22.75;7.57;;;8.40;99.90;;;;;;4926394;28;20206;-62
2022/04/06 02:30:20;;;;;;;22.10;7.07;;;8.40;99.90;;;;;;4945089;28;20059;-63
2022/04/06 02:32:46;;;;;;;18.38;6.65;;;8.30;99.90;;;;;;4948580;28;20074;-62
2022/04/06 02:35:13;;;;;;;19.50;6.55;;;8.40;99.90;;;;;;4930577;28;20051;-62
2022/04/06 02:37:41;;;;;;;20.05;6.43;;;8.40;99.90;;;;;;4960394;28;22895;-62
2022/04/06 02:40:09;;;;;;;21.40;6.82;;;8.40;99.90;;;;;;4931766;28;20057;-61
2022/04/06 02:42:34;;;;;;;17.23;6.55;;;8.40;99.90;;;;;;4972875;28;20489;-62
2022/04/06 02:45:00;;;;;;;17.17;6.68;;;8.40;99.90;;;;;;4928351;28;20046;-63
2022/04/06 02:47:26;;;;;;;14.57;5.28;;;8.30;99.90;;;;;;4962330;28;20077;-62
2022/04/06 02:49:52;;;;;;;17.77;5.95;;;8.40;99.90;;;;;;4926303;28;20087;-63
2022/04/06 02:52:18;;;;;;;19.83;5.68;;;8.40;99.90;;;;;;4957515;28;20452;-62
2022/04/06 02:54:44;;;;;;;16.13;5.65;;;8.40;99.90;;;;;;4942771;28;20162;-62
2022/04/06 02:57:10;;;;;;;15.50;5.22;;;8.40;99.90;;;;;;4958153;28;20488;-62
2022/04/06 02:59:39;;;;;;;20.40;5.20;;;8.40;99.90;;;;;;4931047;28;20437;-61
2022/04/06 03:02:05;;;;;;;11.18;4.18;;;8.40;99.90;;;;;;4932718;28;20059;-62
2022/04/06 03:04:31;;;;;;;14.00;4.50;;;8.40;99.90;;;;;;4959486;28;20069;-61
2022/04/06 03:06:57;;;;;;;13.80;4.35;;;8.40;99.90;;;;;;4908370;28;20051;-62
2022/04/06 03:09:23;;;;;;;9.70;4.07;;;8.40;99.90;;;;;;4930030;28;20128;-61
2022/04/06 03:11:48;;;;;;;10.63;3.33;;;8.30;99.90;;;;;;4964491;28;20051;-61
2022/04/06 03:14:14;;;;;;;11.18;3.38;;;8.40;99.90;;;;;;4927053;28;20065;-62
2022/04/06 03:16:40;;;;;;;14.27;3.95;;;8.40;99.90;;;;;;4936913;28;20058;-62
2022/04/06 03:19:06;;;;;;;7.22;3.50;;;8.40;99.90;;;;;;4940427;28;22342;-62
2022/04/06 03:21:32;;;;;;;12.00;3.30;;;8.40;99.90;;;;;;4957542;28;20055;-61
2022/04/06 03:23:58;;;;;;;12.10;3.47;;;8.40;99.90;;;;;;4929214;28;20135;-63
2022/04/06 03:26:24;;;;;;;8.52;3.50;;;8.40;99.90;;;;;;4950678;28;20055;-61
2022/04/06 03:28:50;;;;;;;16.75;3.95;;;8.40;99.90;;;;;;4942113;28;20058;-62
2022/04/06 03:31:15;;;;;;;12.02;3.17;;;8.40;99.90;;;;;;4914322;28;20126;-62
2022/04/06 03:33:41;;;;;;;13.15;3.30;;;8.40;99.90;;;;;;4918178;28;20553;-62
2022/04/06 03:36:08;;;;;;;10.93;3.60;;;8.40;99.90;;;;;;4960351;28;20039;-62
2022/04/06 03:38:34;;;;;;;15.60;3.70;;;8.40;99.90;;;;;;4928173;28;20047;-63
2022/04/06 03:41:00;;;;;;;19.45;4.15;;;8.40;99.90;;;;;;4935401;28;20074;-63
2022/04/06 03:43:26;;;;;;;15.00;3.88;;;8.40;99.90;;;;;;4962000;28;20066;-62
2022/04/06 03:45:52;;;;;;;10.57;4.00;;;8.40;99.90;;;;;;4940500;28;20163;-62
2022/04/06 03:48:21;;;;;;;12.23;3.70;;;8.40;99.90;;;;;;4928787;28;20051;-62
2022/04/06 03:50:49;;;;;;;10.45;4.00;;;8.40;99.90;;;;;;4947284;28;20118;-62
2022/04/06 03:53:15;;;;;;;14.27;4.28;;;8.40;99.90;;;;;;4951349;28;20499;-62
2022/04/06 03:55:41;;;;;;;11.63;4.25;;;8.40;99.90;;;;;;4963371;28;20051;-61
2022/04/06 03:58:07;;;;;;;10.65;4.35;;;8.40;99.90;;;;;;4961549;28;20046;-62
2022/04/06 04:00:32;;;;;;;12.55;4.60;;;8.40;99.90;;;;;;4921337;28;20055;-62
2022/04/06 04:02:58;;;;;;;14.68;4.57;;;8.40;99.90;;;;;;4935029;28;20626;-62
2022/04/06 04:05:25;;;;;;;9.10;4.30;;;8.40;99.90;;;;;;4933451;28;20110;-61
2022/04/06 04:07:51;;;;;;;14.55;5.10;;;8.40;99.90;;;;;;4949778;28;20525;-62
2022/04/06 04:10:19;;;;;;;11.98;4.85;;;8.40;99.90;;;;;;4932801;28;20051;-62
2022/04/06 04:12:45;;;;;;;13.20;5.20;;;8.30;99.90;;;;;;4963136;28;20395;-62
2022/04/06 04:15:11;;;;;;;14.15;5.30;;;8.30;99.90;;;;;;4937355;28;20039;-62
2022/04/06 04:17:37;;;;;;;14.20;6.32;;;8.30;99.90;;;;;;4949986;28;20470;-61
2022/04/06 04:20:04;;;;;;;15.23;5.90;;;8.30;99.90;;;;;;4957247;28;20050;-61
2022/04/06 04:22:30;;;;;;;15.35;6.22;;;8.30;99.90;;;;;;4943552;28;20055;-61
2022/04/06 04:24:56;;;;;;;22.75;7.30;;;8.30;99.90;;;;;;4959919;28;20124;-62
2022/04/06 04:27:22;;;;;;;21.98;6.43;;;8.30;99.90;;;;;;4948931;28;20512;-62
2022/04/06 04:29:48;;;;;;;26.63;7.43;;;8.20;99.90;;;;;;4961677;28;20413;-61
2022/04/06 04:32:16;;;;;;;23.52;7.68;;;8.20;99.90;;;;;;4967016;28;20051;-62
2022/04/06 04:34:43;;;;;;;19.42;7.68;;;8.20;99.90;;;;;;4963137;28;20046;-61
2022/04/06 04:37:09;;;;;;;24.05;7.88;;;8.20;99.90;;;;;;4946991;28;20528;-61
2022/04/06 04:39:35;;;;;;;18.17;7.30;;;8.20;99.90;;;;;;4930987;28;20050;-62
2022/04/06 04:42:01;;;;;;;18.35;7.13;;;8.20;99.90;;;;;;4918023;28;20042;-61
2022/04/06 04:44:27;;;;;;;20.95;7.60;;;8.30;99.90;;;;;;4928301;28;20402;-62
2022/04/06 04:46:53;;;;;;;22.23;7.50;;;8.30;99.90;;;;;;4933306;28;20062;-61
2022/04/06 04:49:19;;;;;;;24.63;7.80;;;8.30;99.90;;;;;;4929222;28;20090;-62
2022/04/06 04:51:45;;;;;;;22.80;8.00;;;8.30;99.90;;;;;;4933007;28;20077;-62
2022/04/06 04:54:11;;;;;;;28.05;7.95;;;8.30;99.90;;;;;;4913656;28;20153;-61
2022/04/06 04:56:40;;;;;;;22.17;8.02;;;8.30;99.90;;;;;;4948165;28;20051;-61
2022/04/06 04:59:06;;;;;;;21.38;8.02;;;8.20;99.90;;;;;;4925281;28;21163;-61
2022/04/06 05:01:32;;;;;;;28.92;9.43;;;8.30;99.90;;;;;;4919443;28;20568;-62
2022/04/06 05:03:58;;;;;;;18.23;7.38;;;8.30;99.90;;;;;;4902114;28;20740;-61
2022/04/06 05:06:23;;;;;;;25.85;8.07;;;8.30;99.90;;;;;;4931580;28;20054;-62
2022/04/06 05:08:49;;;;;;;26.95;8.30;;;8.30;99.90;;;;;;4913107;28;20587;-62
2022/04/06 05:11:15;;;;;;;26.35;8.35;;;8.20;99.90;;;;;;4963392;28;20043;-61
2022/04/06 05:13:42;;;;;;;22.15;7.60;;;8.30;99.90;;;;;;4929098;28;20051;-62
2022/04/06 05:16:08;;;;;;;20.73;7.45;;;8.30;99.90;;;;;;4944463;28;20036;-61
2022/04/06 05:18:34;;;;;;;22.13;7.53;;;8.20;99.90;;;;;;4924869;28;20043;-62
2022/04/06 05:21:00;;;;;;;27.73;8.10;;;8.20;99.90;;;;;;4941930;28;20085;-61
2022/04/06 05:23:26;;;;;;;18.98;7.78;;;8.20;99.90;;;;;;4954647;28;20169;-62
2022/04/06 05:25:52;;;;;;;26.85;8.27;;;8.20;99.90;;;;;;4925929;28;20086;-61
2022/04/06 05:28:18;;;;;;;26.92;7.88;;;8.20;99.90;;;;;;4957149;28;20537;-61
2022/04/06 05:30:46;;;;;;;24.88;8.00;;;8.20;99.90;;;;;;4960273;28;20047;-62
2022/04/06 05:33:12;;;;;;;20.65;7.75;;;8.20;99.90;;;;;;4921764;28;20061;-61
2022/04/06 05:35:38;;;;;;;21.50;7.88;;;8.20;99.90;;;;;;4932911;28;20450;-62
2022/04/06 05:38:04;;;;;;;26.52;7.75;;;8.20;99.90;;;;;;4910080;28;20138;-61
2022/04/06 05:40:30;;;;;;;27.30;7.80;;;8.20;99.90;;;;;;4931394;28;20057;-61
2022/04/06 05:42:56;;;;;;;24.77;7.45;;;8.10;99.90;;;;;;4932582;28;20091;-61
2022/04/06 05:45:22;;;;;;;26.63;7.70;;;8.10;99.90;;;;;;4932044;28;20047;-61
2022/04/06 05:47:48;;;;;;;20.50;7.20;;;8.10;99.90;;;;;;4915210;28;20101;-62
2022/04/06 05:50:14;;;;;;;26.60;8.82;;;8.10;99.90;;;;;;4914224;28;20126;-62
2022/04/06 05:52:40;;;;;;;20.58;7.75;;;8.10;99.90;;;;;;4919543;28;20074;-62
2022/04/06 05:55:07;;;;;;;20.30;7.63;;;8.10;99.90;;;;;;4944289;28;20127;-61
2022/04/06 05:57:33;;;;;;;25.40;7.50;;;8.10;99.90;;;;;;4933229;28;20046;-61
2022/04/06 05:59:59;;;;;;;20.48;7.60;;;8.10;99.90;;;;;;4936315;28;20057;-61
2022/04/06 06:02:25;;;;;;;22.60;7.47;;;8.10;99.90;;;;;;4929115;28;20492;-62
2022/04/06 06:04:52;;;;;;;24.58;7.85;;;8.10;99.90;;;;;;4927193;28;20051;-62
2022/04/06 06:07:21;;;;;;;22.73;8.18;;;8.10;99.90;;;;;;4920077;28;20051;-62
2022/04/06 06:09:47;;;;;;;20.88;8.05;;;8.10;99.90;;;;;;4908449;28;20059;-61
2022/04/06 06:12:14;;;;;;;21.88;8.38;;;8.10;99.90;;;;;;4911128;28;20462;-61
2022/04/06 06:14:40;;;;;;;20.48;8.70;;;8.00;99.90;;;;;;4913651;28;20414;-64
2022/04/06 06:17:06;;;;;;;21.52;8.65;;;8.10;99.90;;;;;;4962249;28;20062;-62
2022/04/06 06:19:32;;;;;;;25.67;8.40;;;8.10;99.90;;;;;;4926340;28;20040;-62
2022/04/06 06:21:58;;;;;;;23.67;8.57;;;8.10;99.90;;;;;;4958719;28;20494;-62
2022/04/06 06:24:24;;;;;;;25.05;8.75;;;8.10;99.90;;;;;;4918536;28;20051;-62
2022/04/06 06:26:50;;;;;;;17.90;8.23;;;8.10;99.90;;;;;;4930882;28;20094;-62
2022/04/06 06:29:16;;;;;;;21.15;8.70;;;8.10;99.90;;;;;;4955445;28;20140;-62
2022/04/06 06:31:42;;;;;;;19.13;7.72;;;8.10;99.90;;;;;;4930500;28;20399;-62
2022/04/06 06:34:09;;;;;;;17.52;7.68;;;8.10;99.90;;;;;;4928482;28;20082;-61
2022/04/06 06:36:35;;;;;;;22.65;7.57;;;8.10;99.90;;;;;;4961539;28;20516;-61
2022/04/06 06:39:01;;;;;;;17.17;7.43;;;8.10;99.90;;;;;;4929653;28;20043;-62
2022/04/06 06:41:27;;;;;;;14.88;6.40;;;8.10;99.90;;;;;;4922037;28;20047;-61
2022/04/06 06:43:54;;;;;;;17.48;6.70;;;8.10;99.90;;;;;;4955809;28;20842;-62
2022/04/06 06:46:21;;;;;;;20.92;7.10;;;8.10;99.90;;;;;;4958516;28;20050;-61
2022/04/06 06:48:48;;;;;;;20.42;7.07;;;8.10;99.90;;;;;;4928687;28;20096;-61
2022/04/06 06:51:16;;;;;;;15.88;6.60;;;8.10;99.90;;;;;;4926369;28;20051;-62
2022/04/06 06:53:42;;;;;;;16.38;7.25;;;8.10;99.90;;;;;;4927116;28;20055;-61
2022/04/06 06:56:08;;;;;;;18.15;7.05;;;8.10;99.90;;;;;;4898564;28;20059;-62
2022/04/06 06:58:35;;;;;;;17.75;7.55;;;8.10;99.90;;;;;;4925214;28;20050;-61
2022/04/06 07:01:00;;;;;;;17.50;6.70;;;8.10;99.90;;;;;;4936898;28;20055;-62
2022/04/06 07:03:27;;;;;;;19.70;7.97;;;8.10;99.90;;;;;;4926726;28;20058;-61
2022/04/06 07:05:53;;;;;;;16.77;6.40;;;8.10;99.90;;;;;;4919624;28;20498;-62
2022/04/06 07:08:19;;;;;;;14.25;6.55;;;8.10;99.90;;;;;;4906235;28;20062;-62
2022/04/06 07:10:45;;;;;;;15.05;5.90;;;8.10;99.90;;;;;;4927992;28;20474;-62
2022/04/06 07:13:12;;;;;;;15.02;5.43;;;8.10;99.90;;;;;;4923127;28;20051;-61
2022/04/06 07:15:39;;;;;;;14.27;5.43;;;8.10;99.90;;;;;;4957310;28;20535;-61
2022/04/06 07:18:07;;;;;;;13.32;4.75;;;8.10;99.90;;;;;;4921830;28;20039;-62
2022/04/06 07:20:35;;;;;;;17.65;5.03;;;8.10;99.90;;;;;;4925742;28;20043;-62
2022/04/06 07:23:05;;;;;;;16.40;4.70;;;8.10;99.90;;;;;;4910494;28;20051;-62
2022/04/06 07:25:32;;;;;;;17.38;4.45;;;8.10;99.90;;;;;;4907902;28;20564;-61
2022/04/06 07:27:58;;;;;;;17.15;5.07;;;8.10;99.90;;;;;;4919687;28;20047;-62
2022/04/06 07:30:25;;;;;;;15.35;4.90;;;8.10;99.90;;;;;;4906095;28;20158;-62
2022/04/06 07:32:51;;;;;;;11.55;5.10;;;8.10;99.90;;;;;;4923387;28;20106;-61
2022/04/06 07:35:17;;;;;;;16.50;4.32;;;8.20;99.90;;;;;;4934521;28;20134;-61
2022/04/06 07:37:47;;;;;;;13.07;4.60;;;8.20;99.90;;;;;;4924558;28;20047;-61
2022/04/06 07:40:15;;;;;;;13.02;4.63;;;8.20;99.90;;;;;;4919589;28;20053;-61
2022/04/06 07:42:41;;;;;;;12.63;4.65;;;8.20;99.90;;;;;;4954194;28;20043;-62
2022/04/06 07:45:13;;;;;;;14.10;5.22;;;8.20;99.90;;;;;;4924921;28;20051;-62
2022/04/06 07:47:40;;;;;;;10.88;4.70;;;8.20;99.90;;;;;;4922677;28;20409;-61
2022/04/06 07:50:06;;;;;;;9.82;4.13;;;8.20;99.90;;;;;;4926182;28;20612;-63
2022/04/06 07:52:33;;;;;;;15.95;4.63;;;8.20;99.90;;;;;;4954758;28;21806;-61
2022/04/06 07:54:59;;;;;;;16.05;4.70;;;8.20;99.90;;;;;;4923336;28;20958;-62
2022/04/06 07:57:25;;;;;;;16.05;4.80;;;8.20;99.90;;;;;;4925776;28;20548;-62
2022/04/06 07:59:56;;;;;;;15.80;4.70;;;8.20;99.90;;;;;;4924202;28;20166;-62
2022/04/06 08:02:21;;;;;;;15.00;4.50;;;8.30;99.90;;;;;;4954760;28;20059;-62
2022/04/06 08:04:48;;;;;;;17.85;4.88;;;8.30;99.90;;;;;;4924256;28;20422;-62
2022/04/06 08:07:14;;;;;;;14.93;5.05;;;8.30;99.90;;;;;;4925293;28;20133;-62
2022/04/06 08:09:40;;;;;;;15.80;4.95;;;8.30;99.90;;;;;;4926885;28;20059;-60
2022/04/06 08:12:06;;;;;;;14.00;4.60;;;8.30;99.90;;;;;;4927265;28;20048;-62
2022/04/06 08:14:32;;;;;;;20.35;4.93;;;8.30;99.90;;;;;;4924053;28;20165;-61
2022/04/06 08:16:58;;;;;;;20.38;5.05;;;8.30;99.90;;;;;;4932687;28;20058;-61
2022/04/06 08:19:25;;;;;;;13.15;5.00;;;8.30;99.90;;;;;;4958637;28;20573;-62
2022/04/06 08:21:51;;;;;;;16.17;5.20;;;8.30;99.90;;;;;;4945618;28;20142;-62
2022/04/06 08:24:17;;;;;;;16.95;4.70;;;8.30;99.90;;;;;;4949636;28;20051;-61
2022/04/06 08:26:43;;;;;;;17.30;4.40;;;8.30;99.90;;;;;;4942532;28;20086;-61
2022/04/06 08:29:09;;;;;;;18.80;5.25;;;8.30;99.90;;;;;;4927794;28;20489;-62
2022/04/06 08:31:35;;;;;;;19.05;5.68;;;8.40;99.90;;;;;;4962671;28;20044;-62
2022/04/06 08:34:04;;;;;;;15.10;4.68;;;8.40;99.90;;;;;;4917537;28;20417;-61
2022/04/06 08:36:30;;;;;;;17.40;5.07;;;8.40;99.90;;;;;;4928575;28;20066;-62
2022/04/06 08:38:57;;;;;;;13.38;4.68;;;8.40;99.90;;;;;;4920985;28;20482;-61
2022/04/06 08:41:26;;;;;;;13.40;4.63;;;8.30;99.90;;;;;;4927192;28;20047;-61
2022/04/06 08:43:52;;;;;;;17.92;5.07;;;8.30;99.90;;;;;;4928946;28;20063;-62
2022/04/06 08:46:20;;;;;;;18.33;5.53;;;8.40;99.90;;;;;;4947397;28;20047;-63
2022/04/06 08:48:51;;;;;;;15.38;5.60;;;8.40;99.90;;;;;;4934816;28;20806;-63
2022/04/06 08:51:18;;;;;;;17.02;5.22;;;8.40;99.90;;;;;;4929119;28;20101;-62
2022/04/06 08:53:45;;;;;;;16.77;5.40;;;8.50;99.90;;;;;;4926969;28;20138;-62
2022/04/06 08:56:12;;;;;;;18.40;5.22;;;8.60;99.90;;;;;;4931555;28;20050;-62
2022/04/06 08:58:39;;;;;;;21.10;5.13;;;8.60;99.90;;;;;;4910134;28;20134;-62
2022/04/06 09:01:05;;;;;;;15.73;4.95;;;8.70;99.90;;;;;;4909012;28;20055;-62
2022/04/06 09:03:31;;;;;;;21.17;4.70;;;8.70;99.90;;;;;;4940222;28;20710;-62
2022/04/06 09:06:00;;;;;;;18.02;3.95;;;8.80;99.90;;;;;;4960240;28;20062;-62
2022/04/06 09:08:39;;;;;;;11.65;4.32;;;8.80;99.90;;;;;;4959167;28;20067;-63
2022/04/06 09:11:13;;;;;;;15.45;4.30;;;8.80;99.90;;;;;;4958713;28;22071;-62
2022/04/06 09:13:42;;;;;;;16.95;4.30;;;8.80;99.90;;;;;;4927304;28;20047;-62
2022/04/06 09:16:09;;;;;;;20.45;5.30;;;8.80;99.90;;;;;;4940559;28;20194;-63
2022/04/06 09:18:44;;;;;;;14.93;4.57;;;8.90;99.90;;;;;;4909657;28;20055;-62
2022/04/06 09:21:12;;;;;;;19.10;4.60;;;8.90;99.90;;;;;;4919054;28;20044;-62
2022/04/06 09:23:38;;;;;;;14.80;3.97;;;8.90;99.90;;;;;;4961633;28;20047;-62
2022/04/06 09:26:07;;;;;;;15.48;4.47;;;9.10;99.90;;;;;;4958791;28;20502;-62
2022/04/06 09:28:37;;;;;;;13.63;4.68;;;9.20;99.90;;;;;;4946869;28;20125;-63
2022/04/06 09:31:03;;;;;;;17.90;4.60;;;9.30;99.90;;;;;;4931345;28;20066;-62
2022/04/06 09:33:30;;;;;;;21.10;4.88;;;9.40;99.90;;;;;;4927936;28;20516;-62
2022/04/06 09:35:58;;;;;;;17.42;5.07;;;9.50;99.90;;;;;;4924234;28;20113;-63
2022/04/06 09:38:27;;;;;;;11.35;4.68;;;9.60;99.90;;;;;;4928011;28;20059;-62
2022/04/06 09:41:03;;;;;;;15.85;4.90;;;9.60;99.90;;;;;;4932168;28;20055;-62
2022/04/06 09:43:31;;;;;;;20.77;5.03;;;9.70;99.90;;;;;;4959875;28;20680;-63
2022/04/06 09:49:00;;;;;;;19.13;4.88;;;9.80;99.90;;;;;;4945595;28;21874;-62
2022/04/06 09:51:27;;;;;;;18.17;4.65;;;9.80;99.90;;;;;;4923758;28;20044;-62
2022/04/06 09:53:54;;;;;;;16.75;5.22;;;9.80;99.90;;;;;;4926081;28;20050;-62
2022/04/06 09:56:21;;;;;;;13.10;4.60;;;9.80;99.90;;;;;;4958484;28;20528;-63
2022/04/06 09:58:47;;;;;;;14.15;5.20;;;9.80;99.90;;;;;;4953736;28;20055;-62
2022/04/06 10:01:14;;;;;;;16.02;4.47;;;9.80;99.90;;;;;;4956385;28;20098;-63
2022/04/06 10:03:44;;;;;;;23.50;4.82;;;9.80;99.90;;;;;;4927655;28;20130;-62
2022/04/06 10:06:10;;;;;;;17.55;4.88;;;9.80;99.90;;;;;;4925719;28;20109;-63
2022/04/06 10:08:40;;;;;;;15.00;5.88;;;9.70;99.90;;;;;;4951020;28;20051;-63
2022/04/06 10:11:07;;;;;;;20.55;5.05;;;9.80;99.90;;;;;;4957327;28;20047;-62
2022/04/06 10:13:33;;;;;;;14.27;5.07;;;9.70;99.90;;;;;;4923011;28;20158;-62
2022/04/06 10:15:59;;;;;;;18.50;5.53;;;9.70;99.90;;;;;;4939179;28;20054;-63
2022/04/06 10:18:32;;;;;;;21.88;5.35;;;9.70;99.90;;;;;;4913159;28;20071;-63
2022/04/06 10:21:23;;;;;;;18.45;5.15;;;9.70;99.90;;;;;;4923767;28;20059;-63
2022/04/06 10:24:14;;;;;;;17.95;5.32;;;9.70;99.90;;;;;;4958969;28;20558;-62
2022/04/06 10:27:04;;;;;;;22.17;5.72;;;9.70;99.90;;;;;;4956230;28;20045;-63
2022/04/06 10:29:30;;;;;;;18.55;5.57;;;9.70;99.90;;;;;;4937755;28;20051;-63
2022/04/06 10:31:57;;;;;;;18.42;5.63;;;9.70;99.90;;;;;;4926777;28;20456;-63
2022/04/06 10:34:27;;;;;;;17.73;5.30;;;9.70;99.90;;;;;;4925824;28;20133;-63
2022/04/06 10:37:15;;;;;;;20.83;5.55;;;9.70;99.90;;;;;;4916199;28;20047;-63
2022/04/06 10:40:01;;;;;;;22.95;6.03;;;9.70;99.90;;;;;;4959289;28;20050;-63
2022/04/06 10:42:27;;;;;;;19.85;5.95;;;9.70;99.90;;;;;;4929805;28;21408;-62
2022/04/06 10:44:53;;;;;;;17.13;5.85;;;9.80;99.90;;;;;;4930595;28;20062;-62
2022/04/06 10:47:22;;;;;;;21.92;5.60;;;9.80;99.90;;;;;;4914627;28;20043;-63
2022/04/06 10:50:15;;;;;;;18.80;5.75;;;9.80;99.90;;;;;;4957726;28;20055;-63
2022/04/06 10:52:44;;;;;;;23.15;6.35;;;9.80;99.90;;;;;;4928330;28;20482;-63
2022/04/06 10:55:21;;;;;;;27.95;6.25;;;9.80;99.90;;;;;;4918390;28;20047;-63
2022/04/06 10:58:04;;;;;;;21.92;5.72;;;9.80;99.90;;;;;;4959118;28;20081;-63
2022/04/06 11:00:31;;;;;;;21.42;6.55;;;9.80;99.90;;;;;;4958024;28;20094;-63
2022/04/06 11:03:18;;;;;;;23.98;5.97;;;9.80;99.90;;;;;;4952775;28;20051;-62
2022/04/06 11:05:52;;;;;;;26.33;6.75;;;9.80;99.90;;;;;;4922170;28;20093;-62
2022/04/06 11:11:45;;;;;;;21.63;5.72;;;9.80;99.90;;;;;;4938105;28;20051;-62
2022/04/06 11:14:24;;;;;;;21.80;5.55;;;9.90;99.90;;;;;;4904750;28;20054;-63
2022/04/06 11:16:50;;;;;;;25.55;6.35;;;9.90;99.90;;;;;;4930192;28;20494;-63
2022/04/06 11:19:16;;;;;;;28.20;5.93;;;9.90;99.90;;;;;;4943990;28;20046;-62
2022/04/06 11:21:55;;;;;;;23.70;5.25;;;9.90;99.90;;;;;;4919593;28;20054;-62
2022/04/06 11:24:31;;;;;;;25.85;6.07;;;9.90;99.90;;;;;;4964665;28;20420;-62
2022/04/06 11:26:57;;;;;;;27.15;6.30;;;9.90;99.90;;;;;;4928490;28;20592;-63
2022/04/06 11:29:27;;;;;;;23.45;6.53;;;10.00;99.90;;;;;;4930399;28;20181;-62
2022/04/06 11:32:02;;;;;;;27.20;5.93;;;10.10;99.90;;;;;;4931466;28;20157;-63
2022/04/06 11:34:32;;;;;;;28.10;6.07;;;10.10;99.90;;;;;;4932505;28;20059;-62
2022/04/06 11:36:59;;;;;;;21.95;5.63;;;10.30;99.90;;;;;;4933360;28;20101;-63
2022/04/06 11:39:25;;;;;;;25.27;6.78;;;10.40;99.90;;;;;;4919585;28;20523;-63
2022/04/06 11:41:51;;;;;;;19.25;5.68;;;10.50;99.90;;;;;;4930511;28;20047;-62
2022/04/06 11:44:18;;;;;;;28.33;5.72;;;10.70;99.90;;;;;;4920177;28;20485;-62
2022/04/06 11:46:46;;;;;;;19.35;5.05;;;10.80;99.90;;;;;;4929543;28;20051;-62
2022/04/06 11:49:12;;;;;;;24.40;6.03;;;10.90;99.90;;;;;;4960714;28;20501;-63
2022/04/06 11:51:39;;;;;;;19.83;5.53;;;11.10;99.90;;;;;;4931924;28;20055;-63
2022/04/06 11:54:05;;;;;;;17.35;5.45;;;11.30;99.90;;;;;;4912327;28;20280;-63
2022/04/06 11:56:31;;;;;;;18.35;4.53;;;11.60;99.90;;;;;;4942961;28;20133;-63
2022/04/06 11:58:57;;;;;;;16.60;5.03;;;11.80;99.90;;;;;;4926522;28;20047;-62
2022/04/06 12:01:28;;;;;;;19.90;4.38;;;12.00;99.90;;;;;;4947600;28;20105;-62
2022/04/06 12:03:59;;;;;;;18.08;4.40;;;12.10;99.90;;;;;;4931545;28;20501;-63
2022/04/06 12:06:33;;;;;;;15.05;4.72;;;12.10;99.90;;;;;;4964973;28;20047;-62
2022/04/06 12:08:59;;;;;;;11.40;4.10;;;12.20;99.90;;;;;;4918706;28;20054;-62
2022/04/06 12:11:26;;;;;;;15.95;4.50;;;12.20;99.90;;;;;;4944218;28;20668;-63
2022/04/06 12:13:52;;;;;;;20.77;5.50;;;12.10;99.90;;;;;;4928843;28;20070;-63
2022/04/06 12:16:22;;;;;;;15.18;4.07;;;12.10;99.90;;;;;;4939878;28;20073;-63
2022/04/06 12:18:51;;;;;;;15.52;4.47;;;12.00;99.90;;;;;;4946528;28;20052;-62
2022/04/06 12:21:28;;;;;;;19.38;4.32;;;12.00;99.90;;;;;;4965771;28;20086;-64
2022/04/06 12:23:55;;;;;;;16.33;3.53;;;11.90;99.90;;;;;;4928615;28;20523;-63
2022/04/06 12:26:25;;;;;;;15.15;3.83;;;11.90;99.90;;;;;;4917770;28;20516;-63
2022/04/06 12:28:58;;;;;;;13.23;3.42;;;11.90;99.90;;;;;;4932763;28;20058;-63
2022/04/06 12:31:36;;;;;;;17.17;3.85;;;11.80;99.90;;;;;;4966139;28;20081;-62
2022/04/06 12:34:03;;;;;;;15.57;3.78;;;11.90;99.90;;;;;;4938420;28;20043;-62
2022/04/06 12:36:32;;;;;;;16.52;3.50;;;11.90;99.90;;;;;;4952222;28;20066;-62
2022/04/06 12:39:15;;;;;;;15.55;4.00;;;12.00;99.90;;;;;;4969812;28;20082;-62
2022/04/06 12:41:52;;;;;;;15.57;3.72;;;11.90;99.90;;;;;;4968964;28;20456;-62
2022/04/06 12:44:19;;;;;;;14.80;3.03;;;11.90;99.90;;;;;;4913898;28;20070;-62
2022/04/06 12:46:47;;;;;;;12.07;3.22;;;11.90;99.90;;;;;;4905398;28;20047;-63
2022/04/06 12:49:45;;;;;;;11.82;3.00;;;12.00;99.90;;;;;;4936105;28;20078;-62
2022/04/06 12:52:14;;;;;;;13.30;3.28;;;12.10;99.90;;;;;;4929843;28;20113;-63
2022/04/06 12:55:03;;;;;;;17.45;4.03;;;12.20;99.90;;;;;;4939829;28;20051;-62
2022/04/06 12:57:31;;;;;;;14.40;3.83;;;12.30;99.90;;;;;;4958127;28;20108;-62
2022/04/06 13:00:03;;;;;;;12.85;4.22;;;12.50;99.90;;;;;;4957930;28;20141;-62